Time;durP1;ratioP1;P1;durP2;ratioP2;P2;SDS_P1;SDS_P2;PMS_P1;PMS_P2;Temp;Humidity;BMP_temperature;BMP_pressure;BME280_temperature;BME280_humidity;BME280_pressure;Samples;Min_cycle;Max_cycle;Signal;HPM_P1;HPM_P2
2023/01/09 00:00:53;;;;;;;16.27;14.67;;;5.70;1.00;;;;;;6260899;28;20381;-55
2023/01/09 00:03:56;;;;;;;18.27;15.77;;;5.80;1.00;;;;;;6281454;28;20234;-57
2023/01/09 00:07:01;;;;;;;16.93;15.03;;;5.70;1.00;;;;;;6284094;28;20729;-56
2023/01/09 00:10:04;;;;;;;16.97;15.17;;;5.50;1.00;;;;;;6273432;28;20619;-56
2023/01/09 00:13:09;;;;;;;16.33;14.73;;;5.40;1.00;;;;;;6259222;28;20480;-55
2023/01/09 00:16:13;;;;;;;15.37;13.90;;;5.60;1.00;;;;;;6267237;28;20756;-57
2023/01/09 00:19:16;;;;;;;16.63;14.83;;;5.50;1.00;;;;;;6282784;28;20240;-55
2023/01/09 00:22:21;;;;;;;16.83;15.13;;;5.70;1.00;;;;;;6284737;28;20629;-57
2023/01/09 00:25:24;;;;;;;16.50;14.67;;;5.70;1.00;;;;;;6284157;28;20237;-56
2023/01/09 00:28:27;;;;;;;16.33;14.63;;;5.70;1.00;;;;;;6260490;28;21061;-54
2023/01/09 00:31:30;;;;;;;15.50;14.00;;;5.70;1.00;;;;;;6261591;28;20888;-56
2023/01/09 00:34:36;;;;;;;15.70;14.00;;;5.40;1.00;;;;;;6282960;28;20233;-56
2023/01/09 00:37:40;;;;;;;15.80;14.20;;;5.30;1.00;;;;;;6270469;28;20237;-56
2023/01/09 00:40:43;;;;;;;16.07;14.30;;;5.20;1.00;;;;;;6283577;28;20260;-57
2023/01/09 00:43:50;;;;;;;16.20;14.60;;;5.60;1.00;;;;;;6284237;28;20240;-55
2023/01/09 00:46:57;;;;;;;16.43;14.73;;;5.20;1.00;;;;;;6284851;28;20233;-56
2023/01/09 00:50:03;;;;;;;17.43;15.57;;;5.20;1.00;;;;;;6285501;28;20901;-56
2023/01/09 00:53:12;;;;;;;18.27;15.73;;;5.20;1.00;;;;;;6283441;28;20490;-55
2023/01/09 00:56:19;;;;;;;18.93;16.97;;;5.60;1.00;;;;;;6283894;28;20718;-56
2023/01/09 00:59:22;;;;;;;16.83;15.20;;;5.30;1.00;;;;;;6284006;28;20237;-56
2023/01/09 01:02:28;;;;;;;16.57;14.57;;;5.40;1.00;;;;;;6280474;28;20232;-56
2023/01/09 01:08:57;;;;;;;17.10;15.40;;;5.20;1.00;;;;;;6283499;28;20368;-56
2023/01/09 01:12:05;;;;;;;17.70;15.93;;;5.20;1.00;;;;;;6283946;28;20236;-56
2023/01/09 01:15:16;;;;;;;17.50;15.80;;;5.10;1.00;;;;;;6263181;28;20319;-55
2023/01/09 01:18:20;;;;;;;17.37;15.57;;;5.10;1.00;;;;;;6258937;28;20745;-56
2023/01/09 01:21:23;;;;;;;16.77;15.07;;;5.30;1.00;;;;;;6259166;28;20234;-55
2023/01/09 01:24:27;;;;;;;16.27;14.67;;;5.10;1.00;;;;;;6275941;28;20243;-55
2023/01/09 01:27:30;;;;;;;15.90;14.30;;;5.30;1.00;;;;;;6283388;28;20229;-56
2023/01/09 01:30:33;;;;;;;16.27;14.70;;;5.10;1.00;;;;;;6283733;28;20235;-56
2023/01/09 01:33:36;;;;;;;17.23;15.40;;;5.10;1.00;;;;;;6277498;28;20279;-55
2023/01/09 01:36:40;;;;;;;17.07;15.37;;;5.30;1.00;;;;;;6282286;28;20717;-56
2023/01/09 01:39:44;;;;;;;17.50;15.67;;;4.90;1.00;;;;;;6282989;28;20241;-56
2023/01/09 01:42:47;;;;;;;17.67;15.87;;;4.90;1.00;;;;;;6273950;28;20245;-56
2023/01/09 01:45:51;;;;;;;17.93;16.13;;;5.10;1.00;;;;;;6259110;28;20268;-56
2023/01/09 01:48:59;;;;;;;19.93;17.23;;;5.10;1.00;;;;;;6258196;28;20280;-56
2023/01/09 01:52:02;;;;;;;19.47;17.43;;;4.90;1.00;;;;;;6258419;28;20234;-55
2023/01/09 01:55:09;;;;;;;21.03;16.90;;;5.10;1.00;;;;;;6258736;28;20234;-54
2023/01/09 01:58:15;;;;;;;18.77;16.90;;;4.80;1.00;;;;;;6257110;28;20245;-57
2023/01/09 02:01:22;;;;;;;18.10;16.27;;;4.90;1.00;;;;;;6263594;28;20285;-56
2023/01/09 02:04:25;;;;;;;17.53;15.73;;;4.90;1.00;;;;;;6283756;28;20236;-55
2023/01/09 02:07:29;;;;;;;20.50;16.30;;;4.90;1.00;;;;;;6279574;28;20240;-54
2023/01/09 02:10:36;;;;;;;17.50;15.70;;;4.80;1.00;;;;;;6287159;28;20237;-56
2023/01/09 02:13:40;;;;;;;20.53;16.07;;;5.10;1.00;;;;;;6286747;28;20247;-54
2023/01/09 02:16:52;;;;;;;18.63;16.73;;;4.70;1.00;;;;;;6287772;28;20235;-56
2023/01/09 02:20:36;;;;;;;18.33;16.43;;;4.80;1.00;;;;;;6287331;28;20253;-56
2023/01/09 02:24:15;;;;;;;18.07;16.37;;;5.00;1.00;;;;;;6286172;28;20455;-55
2023/01/09 02:27:35;;;;;;;19.33;17.00;;;5.00;1.00;;;;;;6262534;28;20588;-56
2023/01/09 02:30:46;;;;;;;17.73;16.07;;;4.80;1.00;;;;;;6262590;28;20711;-57
2023/01/09 02:33:58;;;;;;;19.17;17.27;;;4.70;1.00;;;;;;6281612;27;20238;-56
2023/01/09 02:37:06;;;;;;;19.63;17.57;;;4.70;1.00;;;;;;6287264;28;20234;-56
2023/01/09 02:40:22;;;;;;;19.87;17.77;;;4.70;1.00;;;;;;6286368;28;20380;-56
2023/01/09 02:43:26;;;;;;;20.73;18.07;;;4.80;1.00;;;;;;6269643;28;20241;-56
2023/01/09 02:46:31;;;;;;;19.97;17.20;;;4.50;1.00;;;;;;6262380;28;20745;-57
2023/01/09 02:49:39;;;;;;;20.40;18.23;;;4.70;1.00;;;;;;6261790;28;20242;-56
2023/01/09 02:53:20;;;;;;;20.50;17.40;;;4.80;1.00;;;;;;6262550;28;20385;-58
2023/01/09 02:57:01;;;;;;;21.33;17.50;;;4.70;1.00;;;;;;6261300;28;20281;-57
2023/01/09 03:00:10;;;;;;;22.70;18.30;;;4.70;1.00;;;;;;6255388;28;20238;-55
2023/01/09 03:03:24;;;;;;;19.83;17.53;;;4.80;1.00;;;;;;6274779;28;20264;-56
2023/01/09 03:06:34;;;;;;;19.67;17.57;;;4.60;1.00;;;;;;6286345;28;20226;-56
2023/01/09 03:09:41;;;;;;;20.67;18.23;;;4.80;1.00;;;;;;6275695;28;20322;-56
2023/01/09 03:12:45;;;;;;;19.17;17.13;;;4.60;1.00;;;;;;6285234;28;20245;-56
2023/01/09 03:15:51;;;;;;;20.67;18.43;;;4.70;1.00;;;;;;6284799;28;20229;-57
2023/01/09 03:18:57;;;;;;;23.47;18.53;;;4.60;1.00;;;;;;6260827;28;20252;-55
2023/01/09 03:22:00;;;;;;;18.47;16.53;;;4.40;1.00;;;;;;6261605;28;20234;-56
2023/01/09 03:25:03;;;;;;;20.93;17.90;;;4.40;1.00;;;;;;6260995;28;20237;-55
2023/01/09 03:28:13;;;;;;;21.23;17.10;;;4.40;1.00;;;;;;6259686;28;20237;-56
2023/01/09 03:31:16;;;;;;;20.77;17.77;;;4.60;1.00;;;;;;6260967;28;20234;-56
2023/01/09 03:34:22;;;;;;;21.73;19.50;;;4.70;1.00;;;;;;6278839;28;20240;-56
2023/01/09 03:37:25;;;;;;;22.07;18.70;;;4.60;1.00;;;;;;6286035;28;20229;-56
2023/01/09 03:40:28;;;;;;;20.33;18.20;;;4.70;1.00;;;;;;6278803;28;20844;-56
2023/01/09 03:43:33;;;;;;;21.00;18.47;;;4.70;1.00;;;;;;6285005;28;20233;-57
2023/01/09 03:46:36;;;;;;;22.50;19.20;;;5.00;1.00;;;;;;6273906;28;20237;-55
2023/01/09 03:49:41;;;;;;;20.67;18.53;;;4.80;1.00;;;;;;6259572;28;20316;-57
2023/01/09 03:52:44;;;;;;;20.53;18.13;;;4.90;1.00;;;;;;6260677;28;20310;-56
2023/01/09 03:55:48;;;;;;;21.33;19.10;;;5.00;1.00;;;;;;6266309;28;20230;-55
2023/01/09 03:58:52;;;;;;;20.73;18.57;;;4.90;1.00;;;;;;6259909;28;20265;-57
2023/01/09 04:01:55;;;;;;;20.50;17.77;;;5.10;1.00;;;;;;6268558;28;20240;-56
2023/01/09 04:05:00;;;;;;;19.73;17.70;;;5.30;1.00;;;;;;6282308;28;20236;-57
2023/01/09 04:08:03;;;;;;;22.20;18.60;;;5.10;1.00;;;;;;6282019;28;21406;-56
2023/01/09 04:11:06;;;;;;;21.23;18.97;;;5.20;1.00;;;;;;6284682;28;20233;-56
2023/01/09 04:14:09;;;;;;;19.83;17.83;;;5.10;1.00;;;;;;6268796;28;20611;-56
2023/01/09 04:17:12;;;;;;;20.53;18.40;;;5.30;1.00;;;;;;6259708;28;20234;-57
2023/01/09 04:20:17;;;;;;;20.20;18.00;;;5.40;1.00;;;;;;6277326;28;20253;-57
2023/01/09 04:23:20;;;;;;;20.80;17.33;;;5.20;1.00;;;;;;6284103;28;20626;-55
2023/01/09 04:26:23;;;;;;;19.67;17.67;;;5.40;1.00;;;;;;6278511;28;20241;-57
2023/01/09 04:29:26;;;;;;;19.23;17.20;;;5.30;1.00;;;;;;6258257;28;20326;-56
2023/01/09 04:32:32;;;;;;;21.83;19.10;;;5.30;1.00;;;;;;6254015;28;20782;-55
2023/01/09 04:35:36;;;;;;;21.03;18.83;;;5.40;1.00;;;;;;6282369;28;20233;-55
2023/01/09 04:38:39;;;;;;;20.57;18.13;;;5.40;1.00;;;;;;6273140;28;20238;-56
2023/01/09 04:41:51;;;;;;;20.73;18.50;;;5.20;1.00;;;;;;6277148;28;20252;-59
2023/01/09 04:44:54;;;;;;;18.60;16.80;;;5.40;1.00;;;;;;6270223;28;20324;-57
2023/01/09 04:47:57;;;;;;;18.97;17.17;;;5.40;1.00;;;;;;6275199;28;20719;-57
2023/01/09 04:51:01;;;;;;;20.50;18.07;;;5.40;1.00;;;;;;6282026;28;20937;-56
2023/01/09 04:54:05;;;;;;;20.23;17.83;;;5.40;1.00;;;;;;6274545;28;20626;-55
2023/01/09 04:57:09;;;;;;;20.47;18.33;;;5.50;1.00;;;;;;6272483;28;20317;-56
2023/01/09 05:00:12;;;;;;;20.03;17.50;;;5.50;1.00;;;;;;6274097;28;20248;-56
2023/01/09 05:03:15;;;;;;;20.07;18.07;;;5.50;1.00;;;;;;6276119;28;20237;-55
2023/01/09 05:06:20;;;;;;;20.97;17.77;;;5.70;1.00;;;;;;6276533;28;20237;-56
2023/01/09 05:09:23;;;;;;;19.97;17.80;;;5.50;1.00;;;;;;6275392;28;20752;-56
2023/01/09 05:12:26;;;;;;;20.33;18.33;;;5.90;1.00;;;;;;6282162;28;20256;-56
2023/01/09 05:15:29;;;;;;;20.57;18.57;;;5.60;1.00;;;;;;6286074;28;20237;-55
2023/01/09 05:18:32;;;;;;;21.67;18.10;;;5.50;1.00;;;;;;6288154;28;20680;-54
2023/01/09 05:21:38;;;;;;;18.70;16.87;;;5.80;1.00;;;;;;6287430;28;20610;-56
2023/01/09 05:24:41;;;;;;;20.00;17.77;;;5.80;1.00;;;;;;6282444;28;20259;-56
2023/01/09 05:27:46;;;;;;;19.20;16.73;;;5.70;1.00;;;;;;6289184;28;20237;-54
2023/01/09 05:30:49;;;;;;;18.93;16.73;;;5.90;1.00;;;;;;6281172;28;20248;-56
2023/01/09 05:33:52;;;;;;;20.67;17.63;;;5.80;1.00;;;;;;6275673;28;20638;-56
2023/01/09 05:36:56;;;;;;;21.17;18.87;;;5.80;1.00;;;;;;6282412;28;20399;-55
2023/01/09 05:39:59;;;;;;;22.33;18.13;;;5.70;1.00;;;;;;6260976;28;20281;-55
2023/01/09 05:43:03;;;;;;;20.57;17.77;;;5.90;1.00;;;;;;6276166;28;20753;-55
2023/01/09 05:46:06;;;;;;;21.83;18.00;;;5.70;1.00;;;;;;6273099;28;20237;-56
2023/01/09 05:49:09;;;;;;;20.03;17.87;;;5.90;1.00;;;;;;6278329;28;20355;-56
2023/01/09 05:52:13;;;;;;;20.83;18.73;;;6.00;1.00;;;;;;6269237;28;20287;-56
2023/01/09 05:55:17;;;;;;;20.73;18.20;;;6.00;1.00;;;;;;6277045;28;20247;-56
2023/01/09 05:58:20;;;;;;;22.20;19.20;;;5.90;1.00;;;;;;6277763;28;20241;-56
2023/01/09 06:01:23;;;;;;;21.43;19.33;;;5.70;1.00;;;;;;6275342;28;20290;-56
2023/01/09 06:04:28;;;;;;;22.63;18.90;;;6.00;1.00;;;;;;6276625;28;20236;-56
2023/01/09 06:07:35;;;;;;;22.10;19.70;;;5.70;1.00;;;;;;6284041;28;20269;-56
2023/01/09 06:10:38;;;;;;;22.03;18.53;;;5.70;1.00;;;;;;6266839;28;20221;-57
2023/01/09 06:13:41;;;;;;;22.20;19.27;;;5.80;1.00;;;;;;6266637;28;20717;-56
2023/01/09 06:16:44;;;;;;;22.20;18.80;;;6.00;1.00;;;;;;6275224;28;20244;-57
2023/01/09 06:19:47;;;;;;;24.10;19.93;;;5.80;1.00;;;;;;6276015;28;20735;-55
2023/01/09 06:22:52;;;;;;;21.20;18.73;;;6.00;1.00;;;;;;6270063;28;20238;-57
2023/01/09 06:25:55;;;;;;;20.40;18.33;;;5.90;1.00;;;;;;6276042;28;20244;-56
2023/01/09 06:28:59;;;;;;;24.70;19.00;;;5.70;1.00;;;;;;6278938;28;20403;-56
2023/01/09 06:32:02;;;;;;;21.37;19.17;;;5.80;1.00;;;;;;6283359;28;20782;-56
2023/01/09 06:35:06;;;;;;;22.57;19.87;;;5.80;1.00;;;;;;6275595;28;20237;-54
2023/01/09 06:38:11;;;;;;;22.63;19.20;;;5.60;1.00;;;;;;6276475;28;20362;-54
2023/01/09 06:41:14;;;;;;;23.07;18.80;;;5.80;1.00;;;;;;6283916;28;20745;-56
2023/01/09 06:44:17;;;;;;;21.20;18.73;;;5.70;1.00;;;;;;6274122;28;20724;-56
2023/01/09 06:47:20;;;;;;;23.03;19.03;;;5.90;1.00;;;;;;6279949;28;20244;-54
2023/01/09 06:50:23;;;;;;;24.63;19.03;;;6.10;1.00;;;;;;6278633;28;20632;-56
2023/01/09 06:53:27;;;;;;;23.17;19.83;;;5.90;1.00;;;;;;6284932;28;20494;-55
2023/01/09 06:56:31;;;;;;;25.63;19.97;;;6.00;1.00;;;;;;6285537;28;20253;-57
2023/01/09 06:59:34;;;;;;;22.60;19.43;;;5.70;1.00;;;;;;6283808;28;20267;-55
2023/01/09 07:02:37;;;;;;;25.10;19.73;;;5.70;1.00;;;;;;6281728;28;20619;-56
2023/01/09 07:05:42;;;;;;;23.67;19.23;;;5.80;1.00;;;;;;6285858;28;20814;-56
2023/01/09 07:08:46;;;;;;;24.03;19.33;;;6.00;1.00;;;;;;6281422;28;20256;-55
2023/01/09 07:11:49;;;;;;;26.80;19.60;;;5.80;1.00;;;;;;6275457;28;20248;-55
2023/01/09 07:14:52;;;;;;;23.53;18.97;;;6.00;1.00;;;;;;6282436;28;20237;-57
2023/01/09 07:17:59;;;;;;;21.57;19.03;;;6.10;1.00;;;;;;6290282;28;20237;-57
2023/01/09 07:21:02;;;;;;;21.33;17.37;;;5.80;1.00;;;;;;6279171;28;20233;-56
2023/01/09 07:24:07;;;;;;;22.17;19.67;;;6.00;1.00;;;;;;6280424;28;20605;-55
2023/01/09 07:27:10;;;;;;;21.00;18.83;;;6.10;1.00;;;;;;6288129;28;20234;-56
2023/01/09 07:30:15;;;;;;;24.73;19.50;;;5.90;1.00;;;;;;6283660;28;20234;-56
2023/01/09 07:33:18;;;;;;;20.57;18.40;;;6.00;1.00;;;;;;6274907;28;20225;-57
2023/01/09 07:36:21;;;;;;;23.80;19.43;;;6.10;1.00;;;;;;6284299;28;20234;-57
2023/01/09 07:39:26;;;;;;;23.80;20.10;;;5.90;1.00;;;;;;6276061;28;20237;-56
2023/01/09 07:42:29;;;;;;;20.77;18.53;;;6.20;1.00;;;;;;6284659;28;20252;-57
2023/01/09 07:45:32;;;;;;;24.17;18.67;;;6.00;1.00;;;;;;6284430;28;20569;-55
2023/01/09 07:48:35;;;;;;;22.07;18.57;;;6.00;1.00;;;;;;6285832;28;20365;-55
2023/01/09 07:51:41;;;;;;;22.83;19.67;;;6.30;1.00;;;;;;6287668;28;20371;-57
2023/01/09 07:54:46;;;;;;;25.70;19.43;;;6.00;1.00;;;;;;6292275;28;20733;-55
2023/01/09 07:57:53;;;;;;;24.23;19.17;;;6.20;1.00;;;;;;6284127;28;20347;-54
2023/01/09 08:00:56;;;;;;;22.13;19.20;;;6.10;1.00;;;;;;6294541;28;20225;-56
2023/01/09 08:03:59;;;;;;;26.40;20.07;;;5.90;1.00;;;;;;6281555;28;20238;-55
2023/01/09 08:07:05;;;;;;;22.97;19.67;;;6.00;1.00;;;;;;6280020;28;20233;-56
2023/01/09 08:10:10;;;;;;;22.30;18.90;;;6.20;1.00;;;;;;6281603;28;20233;-54
2023/01/09 08:13:14;;;;;;;23.93;19.93;;;6.30;1.00;;;;;;6277415;28;20247;-55
2023/01/09 08:16:17;;;;;;;23.47;19.73;;;6.00;1.00;;;;;;6284524;28;20244;-56
2023/01/09 08:19:20;;;;;;;26.33;19.80;;;6.10;1.00;;;;;;6284331;28;20651;-57
2023/01/09 08:22:23;;;;;;;26.73;21.33;;;6.00;1.00;;;;;;6281871;28;20471;-56
2023/01/09 08:25:27;;;;;;;28.83;21.37;;;6.30;1.00;;;;;;6292030;28;20630;-55
2023/01/09 08:28:30;;;;;;;26.13;19.50;;;6.20;1.00;;;;;;6288714;28;20761;-55
2023/01/09 08:31:34;;;;;;;28.13;20.43;;;6.20;1.00;;;;;;6284717;28;20675;-56
2023/01/09 08:34:37;;;;;;;26.47;20.30;;;6.20;1.00;;;;;;6286987;28;20647;-56
2023/01/09 08:37:43;;;;;;;26.37;20.23;;;6.20;1.00;;;;;;6283498;28;20465;-57
2023/01/09 08:40:48;;;;;;;26.27;18.70;;;6.50;1.00;;;;;;6283325;28;20237;-57
2023/01/09 08:47:23;;;;;;;26.47;19.67;;;6.40;1.00;;;;;;6278047;28;20613;-56
2023/01/09 08:50:26;;;;;;;24.37;19.63;;;6.30;1.00;;;;;;6279249;28;20233;-57
2023/01/09 08:53:30;;;;;;;22.63;18.97;;;6.50;1.00;;;;;;6286887;28;20488;-55
2023/01/09 08:56:34;;;;;;;25.77;19.43;;;6.60;1.00;;;;;;6281178;28;20237;-56
2023/01/09 08:59:38;;;;;;;20.53;17.97;;;6.70;1.00;;;;;;6277334;28;20737;-55
2023/01/09 09:02:41;;;;;;;23.77;18.43;;;6.90;1.00;;;;;;6282257;28;20236;-56
2023/01/09 09:05:44;;;;;;;22.87;18.07;;;6.50;1.00;;;;;;6278090;28;20306;-56
2023/01/09 09:08:50;;;;;;;24.83;18.77;;;6.60;1.00;;;;;;6282886;28;20286;-56
2023/01/09 09:11:55;;;;;;;25.93;18.70;;;6.60;1.00;;;;;;6279061;28;20233;-56
2023/01/09 09:15:15;;;;;;;23.57;18.60;;;6.80;1.00;;;;;;6287079;28;20736;-55
2023/01/09 09:18:18;;;;;;;23.63;20.23;;;6.70;1.00;;;;;;6275576;28;20834;-56
2023/01/09 09:21:21;;;;;;;21.27;17.80;;;6.60;1.00;;;;;;6280480;28;20233;-56
2023/01/09 09:24:24;;;;;;;21.13;17.67;;;6.90;1.00;;;;;;6278671;28;20221;-57
2023/01/09 09:27:29;;;;;;;22.73;17.83;;;6.80;1.00;;;;;;6275773;28;20950;-55
2023/01/09 09:30:32;;;;;;;18.67;16.33;;;6.70;1.00;;;;;;6274790;28;20229;-57
2023/01/09 09:33:35;;;;;;;22.63;18.63;;;6.80;1.00;;;;;;6280867;28;20733;-57
2023/01/09 09:36:38;;;;;;;22.87;18.77;;;7.00;1.00;;;;;;6288250;28;20244;-57
2023/01/09 09:39:41;;;;;;;23.03;18.17;;;6.70;1.00;;;;;;6276194;28;20237;-55
2023/01/09 09:46:32;;;;;;;21.53;17.13;;;6.60;1.00;;;;;;6276488;28;20226;-55
2023/01/09 09:49:43;;;;;;;24.27;17.77;;;6.80;1.00;;;;;;6279740;28;20234;-57
2023/01/09 09:52:57;;;;;;;21.87;18.20;;;6.90;1.00;;;;;;6281451;28;20233;-57
2023/01/09 09:56:01;;;;;;;22.30;17.73;;;6.90;1.00;;;;;;6288713;28;20237;-55
2023/01/09 09:59:14;;;;;;;20.37;17.13;;;6.90;1.00;;;;;;6284769;28;20882;-57
2023/01/09 10:02:27;;;;;;;20.83;18.10;;;7.00;1.00;;;;;;6288682;28;20235;-57
2023/01/09 10:05:34;;;;;;;19.07;16.77;;;7.20;1.00;;;;;;6269776;28;20368;-57
2023/01/09 10:08:43;;;;;;;17.80;15.93;;;7.10;1.00;;;;;;6281642;28;20380;-55
2023/01/09 10:11:54;;;;;;;18.43;16.17;;;7.50;1.00;;;;;;6276124;28;20616;-54
2023/01/09 10:15:00;;;;;;;18.30;16.33;;;7.30;1.00;;;;;;6279225;28;20225;-59
2023/01/09 10:18:19;;;;;;;20.23;16.30;;;7.40;1.00;;;;;;6292298;28;20232;-56
2023/01/09 10:21:30;;;;;;;17.20;15.40;;;7.60;1.00;;;;;;6280644;28;20241;-56
2023/01/09 10:24:44;;;;;;;17.40;14.83;;;7.40;1.00;;;;;;6281620;28;20301;-57
2023/01/09 10:28:07;;;;;;;18.17;14.37;;;7.60;1.00;;;;;;6281843;28;20299;-56
2023/01/09 10:31:17;;;;;;;16.70;13.60;;;7.50;1.00;;;;;;6277291;28;20230;-57
2023/01/09 10:34:36;;;;;;;16.37;14.60;;;7.70;1.00;;;;;;6287675;28;20418;-56
2023/01/09 10:37:44;;;;;;;14.57;13.07;;;7.50;1.00;;;;;;6280298;28;20238;-54
2023/01/09 10:40:54;;;;;;;15.80;13.03;;;7.60;1.00;;;;;;6285750;28;20234;-56
2023/01/09 10:44:08;;;;;;;14.47;13.07;;;7.70;1.00;;;;;;6284214;28;20324;-57
2023/01/09 10:47:18;;;;;;;14.20;12.87;;;7.70;1.00;;;;;;6285603;28;20597;-55
2023/01/09 10:50:23;;;;;;;13.70;12.30;;;7.80;1.00;;;;;;6280834;28;20603;-57
2023/01/09 10:53:29;;;;;;;13.43;12.23;;;7.70;1.00;;;;;;6274959;28;20612;-56
2023/01/09 10:56:37;;;;;;;12.70;11.40;;;7.80;1.00;;;;;;6286240;28;20229;-56
2023/01/09 10:59:40;;;;;;;12.37;11.30;;;7.80;1.00;;;;;;6284937;28;20729;-55
2023/01/09 11:02:45;;;;;;;11.30;10.40;;;7.90;1.00;;;;;;6289377;28;20245;-56
2023/01/09 11:05:52;;;;;;;12.83;11.63;;;7.90;1.00;;;;;;6276356;28;20244;-60
2023/01/09 11:08:59;;;;;;;12.23;10.93;;;7.90;1.00;;;;;;6274988;28;20621;-56
2023/01/09 11:12:24;;;;;;;11.60;10.57;;;7.90;1.00;;;;;;6285489;28;20611;-56
2023/01/09 11:15:30;;;;;;;11.73;10.40;;;7.90;1.00;;;;;;6282558;28;20244;-56
2023/01/09 11:18:38;;;;;;;10.73;9.90;;;8.20;1.00;;;;;;6281729;28;20713;-57
2023/01/09 11:21:41;;;;;;;11.53;10.63;;;7.90;1.00;;;;;;6273208;28;20226;-56
2023/01/09 11:24:45;;;;;;;10.00;9.20;;;8.00;1.00;;;;;;6281293;28;20237;-55
2023/01/09 11:28:07;;;;;;;10.67;9.97;;;8.00;1.00;;;;;;6288925;28;20748;-55
2023/01/09 11:31:10;;;;;;;9.83;9.13;;;8.00;1.00;;;;;;6281383;28;20912;-54
2023/01/09 11:34:18;;;;;;;9.87;9.10;;;8.00;1.00;;;;;;6272514;28;20303;-57
2023/01/09 11:37:26;;;;;;;9.83;8.93;;;8.00;1.00;;;;;;6292042;28;20229;-55
2023/01/09 11:40:31;;;;;;;9.03;8.40;;;8.00;1.00;;;;;;6282959;28;20286;-55
2023/01/09 11:43:37;;;;;;;8.33;7.80;;;8.00;1.00;;;;;;6278094;28;20630;-55
2023/01/09 11:46:43;;;;;;;8.77;8.07;;;8.00;1.00;;;;;;6284522;28;20269;-55
2023/01/09 11:49:48;;;;;;;8.70;8.00;;;8.20;1.00;;;;;;6283761;28;20628;-55
2023/01/09 11:53:12;;;;;;;7.90;7.40;;;8.10;1.00;;;;;;6283643;28;20327;-57
2023/01/09 11:56:17;;;;;;;7.70;7.30;;;8.10;1.00;;;;;;6284603;28;20618;-56
2023/01/09 11:59:22;;;;;;;7.03;6.57;;;8.20;1.00;;;;;;6282402;28;20237;-58
2023/01/09 12:03:11;;;;;;;7.87;7.33;;;8.20;1.00;;;;;;6287484;28;20229;-55
2023/01/09 12:06:29;;;;;;;7.33;6.80;;;8.30;1.00;;;;;;6258201;28;20589;-55
2023/01/09 12:09:41;;;;;;;7.20;6.73;;;8.30;1.00;;;;;;6280403;28;20260;-55
2023/01/09 12:12:54;;;;;;;6.57;6.23;;;8.30;1.00;;;;;;6278268;28;20244;-55
2023/01/09 12:16:08;;;;;;;6.33;5.70;;;8.40;1.00;;;;;;6279337;28;20254;-56
2023/01/09 12:19:40;;;;;;;6.30;5.77;;;8.60;1.00;;;;;;6283368;28;20234;-56
2023/01/09 12:22:56;;;;;;;6.63;5.77;;;8.70;1.00;;;;;;6283235;28;20236;-55
2023/01/09 12:26:12;;;;;;;7.67;5.40;;;9.00;1.00;;;;;;6278889;28;20499;-55
2023/01/09 12:29:40;;;;;;;5.93;5.27;;;9.00;1.00;;;;;;6273312;28;20717;-60
2023/01/09 12:33:10;;;;;;;5.60;5.20;;;9.00;1.00;;;;;;6282823;28;20737;-54
2023/01/09 12:36:24;;;;;;;5.50;5.03;;;9.10;1.00;;;;;;6277319;28;20525;-56
2023/01/09 12:39:39;;;;;;;5.33;4.97;;;9.20;1.00;;;;;;6272870;28;20245;-54
2023/01/09 12:42:53;;;;;;;5.13;4.83;;;9.10;1.00;;;;;;6282198;28;20524;-56
2023/01/09 12:46:07;;;;;;;6.70;5.97;;;9.10;1.00;;;;;;6287165;28;20229;-57
2023/01/09 12:49:27;;;;;;;4.93;4.73;;;9.10;1.00;;;;;;6294779;28;20710;-56
2023/01/09 12:52:36;;;;;;;5.40;5.03;;;9.20;1.00;;;;;;6278848;28;20717;-55
2023/01/09 12:55:46;;;;;;;4.93;4.67;;;9.30;1.00;;;;;;6283176;28;20230;-56
2023/01/09 12:58:53;;;;;;;5.43;4.93;;;9.30;1.00;;;;;;6287842;28;20710;-55
2023/01/09 13:02:04;;;;;;;5.10;4.90;;;9.30;1.00;;;;;;6284462;28;20266;-56
2023/01/09 13:05:14;;;;;;;7.80;4.67;;;9.20;1.00;;;;;;6276127;28;20248;-56
2023/01/09 13:08:23;;;;;;;5.00;4.77;;;9.10;1.00;;;;;;6279478;28;20240;-55
2023/01/09 13:11:37;;;;;;;4.90;4.60;;;9.10;1.00;;;;;;6281439;28;20314;-56
2023/01/09 13:14:50;;;;;;;5.70;4.60;;;9.00;1.00;;;;;;6281297;28;20639;-55
2023/01/09 13:17:57;;;;;;;4.80;4.50;;;8.90;1.00;;;;;;6276175;28;20411;-56
2023/01/09 13:21:01;;;;;;;5.30;4.90;;;8.90;1.00;;;;;;6284080;28;20239;-55
2023/01/09 13:24:13;;;;;;;5.17;4.93;;;8.90;1.00;;;;;;6282787;28;20768;-55
2023/01/09 13:27:27;;;;;;;5.37;5.00;;;8.90;1.00;;;;;;6283442;28;20240;-55
2023/01/09 13:31:00;;;;;;;4.40;4.27;;;9.00;1.00;;;;;;6278656;28;20240;-56
2023/01/09 13:34:06;;;;;;;4.60;4.40;;;8.90;1.00;;;;;;6263831;28;20229;-54
2023/01/09 13:37:24;;;;;;;5.43;5.13;;;8.90;1.00;;;;;;6286001;28;20225;-57
2023/01/09 13:40:31;;;;;;;6.57;5.40;;;8.90;1.00;;;;;;6279722;28;20714;-55
2023/01/09 13:43:54;;;;;;;4.87;4.57;;;8.90;1.00;;;;;;6273115;28;20229;-56
2023/01/09 13:46:59;;;;;;;4.50;4.20;;;9.00;1.00;;;;;;6265376;28;20229;-56
2023/01/09 13:50:25;;;;;;;7.03;4.33;;;9.00;1.00;;;;;;6275923;28;20233;-55
2023/01/09 13:53:49;;;;;;;4.20;3.93;;;8.90;1.00;;;;;;6282641;28;20237;-55
2023/01/09 13:57:24;;;;;;;5.37;4.23;;;8.80;1.00;;;;;;6272839;28;20229;-54
2023/01/09 14:00:50;;;;;;;4.37;4.07;;;8.80;1.00;;;;;;6272911;28;20249;-56
2023/01/09 14:04:30;;;;;;;5.23;4.73;;;8.80;1.00;;;;;;6280509;28;20320;-56
2023/01/09 14:07:41;;;;;;;5.17;4.80;;;8.70;1.00;;;;;;6246192;28;20654;-54
2023/01/09 14:10:49;;;;;;;6.80;6.00;;;8.60;1.00;;;;;;6290035;28;20697;-56
2023/01/09 14:14:01;;;;;;;5.23;4.30;;;8.90;1.00;;;;;;6283052;28;20842;-55
2023/01/09 14:17:17;;;;;;;4.03;3.93;;;8.60;1.00;;;;;;6272391;28;20238;-55
2023/01/09 14:20:28;;;;;;;4.33;3.93;;;8.60;1.00;;;;;;6272344;28;20229;-56
2023/01/09 14:23:35;;;;;;;4.33;4.23;;;8.60;1.00;;;;;;6284452;28;20240;-55
2023/01/09 14:26:55;;;;;;;4.00;3.87;;;8.50;1.00;;;;;;6279713;28;20602;-57
2023/01/09 14:30:28;;;;;;;4.67;4.30;;;8.50;1.00;;;;;;6273284;28;20336;-56
2023/01/09 14:33:34;;;;;;;4.07;3.80;;;8.50;1.00;;;;;;6284336;28;20240;-56
2023/01/09 14:36:37;;;;;;;4.37;4.07;;;8.50;1.00;;;;;;6280044;28;20233;-56
2023/01/09 14:39:44;;;;;;;3.97;3.67;;;8.50;1.00;;;;;;6276438;28;20453;-55
2023/01/09 14:42:52;;;;;;;9.27;7.30;;;8.50;1.00;;;;;;6276938;28;20230;-55
2023/01/09 14:46:06;;;;;;;4.57;4.20;;;8.50;1.00;;;;;;6279843;28;20237;-55
2023/01/09 14:49:21;;;;;;;3.97;3.70;;;8.50;1.00;;;;;;6265194;28;20660;-57
2023/01/09 14:52:29;;;;;;;4.10;3.90;;;8.40;1.00;;;;;;6280142;28;20424;-56
2023/01/09 14:55:40;;;;;;;4.30;4.00;;;8.40;1.00;;;;;;6274232;28;20241;-61
2023/01/09 14:58:43;;;;;;;4.50;4.10;;;8.50;1.00;;;;;;6290949;28;20694;-55
2023/01/09 15:01:50;;;;;;;4.53;4.33;;;8.40;1.00;;;;;;6284943;28;20514;-55
2023/01/09 15:04:56;;;;;;;5.07;4.67;;;8.40;1.00;;;;;;6276267;28;20759;-54
2023/01/09 15:08:04;;;;;;;4.77;4.57;;;8.40;1.00;;;;;;6290305;28;20263;-56
2023/01/09 15:11:12;;;;;;;6.03;4.97;;;8.30;1.00;;;;;;6279165;28;20261;-57
2023/01/09 15:14:23;;;;;;;4.30;4.10;;;8.20;1.00;;;;;;6283119;28;20229;-55
2023/01/09 15:17:30;;;;;;;4.83;4.47;;;8.20;1.00;;;;;;6276631;28;20260;-55
2023/01/09 15:20:35;;;;;;;4.73;4.33;;;8.10;1.00;;;;;;6278447;28;20232;-57
2023/01/09 15:23:38;;;;;;;4.37;4.10;;;8.20;1.00;;;;;;6269566;28;20703;-55
2023/01/09 15:26:41;;;;;;;4.43;4.13;;;8.10;1.00;;;;;;6276371;28;20278;-57
2023/01/09 15:29:45;;;;;;;4.93;4.67;;;8.20;1.00;;;;;;6271802;28;20241;-56
2023/01/09 15:32:50;;;;;;;5.10;4.80;;;8.10;1.00;;;;;;6287663;28;20248;-56
2023/01/09 15:35:59;;;;;;;5.30;5.00;;;8.30;1.00;;;;;;6283842;28;20745;-55
2023/01/09 15:39:02;;;;;;;5.37;5.03;;;8.00;1.00;;;;;;6283687;28;20245;-56
2023/01/09 15:45:41;;;;;;;7.10;6.43;;;8.00;1.00;;;;;;6288947;28;20233;-55
2023/01/09 15:48:45;;;;;;;7.10;6.60;;;8.00;1.00;;;;;;6283192;28;20843;-56
2023/01/09 15:51:50;;;;;;;7.07;6.60;;;8.10;1.00;;;;;;6277876;28;20717;-55
2023/01/09 15:54:54;;;;;;;6.83;5.70;;;8.00;1.00;;;;;;6277743;28;20829;-55
2023/01/09 15:57:57;;;;;;;4.70;4.50;;;8.30;1.00;;;;;;6278409;28;20317;-56
2023/01/09 16:01:02;;;;;;;5.43;4.93;;;8.30;1.00;;;;;;6277282;28;20608;-55
2023/01/09 16:04:07;;;;;;;6.23;5.63;;;8.20;1.00;;;;;;6289046;28;20626;-55
2023/01/09 16:07:16;;;;;;;6.43;5.77;;;8.10;1.00;;;;;;6276018;28;20240;-56
2023/01/09 16:10:25;;;;;;;5.93;5.43;;;8.20;1.00;;;;;;6286846;28;20980;-55
2023/01/09 16:13:31;;;;;;;6.30;4.93;;;8.20;1.00;;;;;;6284311;28;20232;-55
2023/01/09 16:16:35;;;;;;;4.30;4.10;;;8.20;1.00;;;;;;6274613;28;20698;-56
2023/01/09 16:19:46;;;;;;;5.03;4.60;;;8.10;1.00;;;;;;6279660;28;20238;-55
2023/01/09 16:22:55;;;;;;;5.77;5.37;;;8.20;1.00;;;;;;6282435;28;20233;-55
2023/01/09 16:26:09;;;;;;;5.67;5.10;;;8.10;1.00;;;;;;6285461;28;20241;-55
2023/01/09 16:29:37;;;;;;;5.70;5.20;;;8.00;1.00;;;;;;6274941;28;20620;-55
2023/01/09 16:32:47;;;;;;;5.43;5.00;;;8.10;1.00;;;;;;6281334;28;20229;-56
2023/01/09 16:35:52;;;;;;;5.80;5.50;;;8.10;1.00;;;;;;6286191;28;20503;-55
2023/01/09 16:39:01;;;;;;;4.53;4.43;;;8.00;1.00;;;;;;6288119;28;20240;-55